Time;durP1;ratioP1;P1;durP2;ratioP2;P2;SDS_P1;SDS_P2;PMS_P1;PMS_P2;Temp;Humidity;BMP_temperature;BMP_pressure;BME280_temperature;BME280_humidity;BME280_pressure;Samples;Min_cycle;Max_cycle;Signal;HPM_P1;HPM_P2
2023/08/21 00:01:02;;;;;;;;;;;16.40;99.90;;;;;;5136835;27;19939;-44
2023/08/21 00:03:27;;;;;;;;;;;16.40;99.90;;;;;;5136773;27;19908;-45
2023/08/21 00:05:53;;;;;;;;;;;16.40;99.90;;;;;;5136504;27;19911;-40
2023/08/21 00:08:18;;;;;;;;;;;16.40;99.90;;;;;;5134586;27;19994;-42
2023/08/21 00:10:44;;;;;;;;;;;16.40;99.90;;;;;;5157255;27;20013;-42
2023/08/21 00:13:09;;;;;;;;;;;16.40;99.90;;;;;;5157417;27;20006;-40
2023/08/21 00:15:35;;;;;;;;;;;16.40;99.90;;;;;;5157334;27;19911;-41
2023/08/21 00:18:00;;;;;;;;;;;16.40;99.90;;;;;;5157288;27;20369;-42
2023/08/21 00:20:26;;;;;;;;;;;16.40;99.90;;;;;;5157083;27;19922;-41
2023/08/21 00:22:52;;;;;;;;;;;16.30;99.90;;;;;;5157026;27;20009;-42
2023/08/21 00:25:17;;;;;;;;;;;16.20;99.90;;;;;;5157135;27;20001;-41
2023/08/21 00:27:43;;;;;;;;;;;16.00;99.90;;;;;;5157004;27;19938;-42
2023/08/21 00:30:09;;;;;;;;;;;15.90;99.90;;;;;;5157085;27;19907;-42
2023/08/21 00:32:35;;;;;;;;;;;15.80;99.90;;;;;;5156805;27;19914;-40
2023/08/21 00:35:00;;;;;;;;;;;15.80;99.90;;;;;;5157001;27;19993;-42
2023/08/21 00:37:26;;;;;;;;;;;15.80;99.90;;;;;;5156836;27;20369;-40
2023/08/21 00:39:51;;;;;;;;;;;15.70;99.90;;;;;;5136765;27;19919;-43
2023/08/21 00:42:17;;;;;;;;;;;15.60;99.90;;;;;;5135521;27;19944;-40
2023/08/21 00:44:42;;;;;;;;;;;15.50;99.90;;;;;;5155481;27;20285;-42
2023/08/21 00:47:08;;;;;;;;;;;15.50;99.90;;;;;;5156531;27;19920;-42
2023/08/21 00:49:33;;;;;;;;;;;15.50;99.90;;;;;;5156610;27;19943;-40
2023/08/21 00:51:59;;;;;;;;;;;15.60;99.90;;;;;;5156253;27;20029;-40
2023/08/21 00:54:25;;;;;;;;;;;15.60;99.90;;;;;;5156475;27;20425;-41
2023/08/21 00:56:52;;;;;;;;;;;15.60;99.90;;;;;;5156396;27;19990;-40
2023/08/21 00:59:18;;;;;;;;;;;15.60;99.90;;;;;;5156403;27;19955;-41
2023/08/21 01:01:44;;;;;;;;;;;15.60;99.90;;;;;;5156301;27;19911;-40
2023/08/21 01:04:10;;;;;;;;;;;15.60;99.90;;;;;;5156461;27;20396;-41
2023/08/21 01:06:35;;;;;;;;;;;15.50;99.90;;;;;;5156151;27;19955;-44
2023/08/21 01:09:25;;;;;;;;;;;15.60;99.90;;;;;;5130936;27;20002;-41
2023/08/21 01:12:09;;;;;;;;;;;15.50;99.90;;;;;;5114888;28;19912;-40
2023/08/21 01:14:43;;;;;;;;;;;15.50;99.90;;;;;;5114751;28;20006;-41
2023/08/21 01:17:09;;;;;;;;;;;15.50;99.90;;;;;;5114722;28;19914;-40
2023/08/21 01:19:42;;;;;;;;;;;15.50;99.90;;;;;;5114703;28;19923;-40
2023/08/21 01:22:08;;;;;;;;;;;15.50;99.90;;;;;;5114783;28;19960;-39
2023/08/21 01:24:34;;;;;;;;;;;15.50;99.90;;;;;;5114832;28;20300;-42
2023/08/21 01:27:00;;;;;;;;;;;15.50;99.90;;;;;;5114716;28;19908;-40
2023/08/21 01:29:25;;;;;;;;;;;15.50;99.90;;;;;;5117117;27;19919;-40
2023/08/21 01:31:55;;;;;;;;;;;15.40;99.90;;;;;;5155397;27;19922;-41
2023/08/21 01:34:21;;;;;;;;;;;15.40;99.90;;;;;;5155727;27;19911;-41
2023/08/21 01:36:47;;;;;;;;;;;15.40;99.90;;;;;;5155729;27;19907;-41
2023/08/21 01:39:13;;;;;;;;;;;15.40;99.90;;;;;;5155685;27;20334;-41
2023/08/21 01:41:38;;;;;;;;;;;15.40;99.90;;;;;;5155568;27;20377;-40
2023/08/21 01:44:04;;;;;;;;;;;15.30;99.90;;;;;;5155145;27;19941;-41
2023/08/21 01:46:29;;;;;;;;;;;15.30;99.90;;;;;;5155473;27;19928;-40
2023/08/21 01:48:55;;;;;;;;;;;15.30;99.90;;;;;;5153562;27;19998;-40
2023/08/21 01:51:20;;;;;;;;;;;15.20;99.90;;;;;;5155402;27;19907;-40
2023/08/21 01:53:47;;;;;;;;;;;15.20;99.90;;;;;;5155293;27;19936;-40
2023/08/21 01:56:12;;;;;;;;;;;15.10;99.90;;;;;;5155321;27;19945;-40
2023/08/21 01:58:37;;;;;;;;;;;15.10;99.90;;;;;;5155035;27;19915;-41
2023/08/21 02:01:04;;;;;;;;;;;15.00;99.90;;;;;;5139991;27;19911;-40
2023/08/21 02:03:30;;;;;;;;;;;15.00;99.90;;;;;;5133650;27;20417;-40
2023/08/21 02:05:59;;;;;;;;;;;15.00;99.90;;;;;;5134530;27;19911;-42
2023/08/21 02:08:27;;;;;;;;;;;15.00;99.90;;;;;;5134354;27;19922;-40
2023/08/21 02:10:52;;;;;;;;;;;15.00;99.90;;;;;;5134354;27;19965;-40
2023/08/21 02:13:18;;;;;;;;;;;15.00;99.90;;;;;;5134010;27;20369;-41
2023/08/21 02:15:44;;;;;;;;;;;15.00;99.90;;;;;;5134176;27;19911;-42
2023/08/21 02:18:09;;;;;;;;;;;14.90;99.90;;;;;;5134202;27;20293;-41
2023/08/21 02:20:35;;;;;;;;;;;15.00;99.90;;;;;;5134185;27;19916;-40
2023/08/21 02:23:00;;;;;;;;;;;15.00;99.90;;;;;;5134175;27;20358;-40
2023/08/21 02:25:26;;;;;;;;;;;15.00;99.90;;;;;;5134110;27;19911;-39
2023/08/21 02:27:51;;;;;;;;;;;14.90;99.90;;;;;;5134255;27;19908;-40
2023/08/21 02:30:17;;;;;;;;;;;14.90;99.90;;;;;;5134022;27;19916;-40
2023/08/21 02:32:42;;;;;;;;;;;14.90;99.90;;;;;;5133759;27;19912;-41
2023/08/21 02:35:08;;;;;;;;;;;14.80;99.90;;;;;;5133982;27;19908;-41
2023/08/21 02:37:33;;;;;;;;;;;14.80;99.90;;;;;;5133914;27;19943;-40
2023/08/21 02:39:59;;;;;;;;;;;14.80;99.90;;;;;;5133852;27;20322;-40
2023/08/21 02:42:25;;;;;;;;;;;14.80;99.90;;;;;;5133809;27;20362;-41
2023/08/21 02:44:51;;;;;;;;;;;14.80;99.90;;;;;;5133558;27;20293;-40
2023/08/21 02:47:16;;;;;;;;;;;14.80;99.90;;;;;;5133709;27;19964;-40
2023/08/21 02:49:41;;;;;;;;;;;14.80;99.90;;;;;;5133658;27;19923;-40
2023/08/21 02:52:07;;;;;;;;;;;14.70;99.90;;;;;;5133849;27;19915;-40
2023/08/21 02:54:32;;;;;;;;;;;14.70;99.90;;;;;;5133555;28;20384;-41
2023/08/21 02:56:58;;;;;;;;;;;14.60;99.90;;;;;;5133668;28;20010;-42
2023/08/21 02:59:23;;;;;;;;;;;14.50;99.90;;;;;;5133540;28;20272;-43
2023/08/21 03:01:49;;;;;;;;;;;14.40;99.90;;;;;;5133620;28;19908;-40
2023/08/21 03:04:14;;;;;;;;;;;14.40;99.90;;;;;;5133647;28;19907;-40
2023/08/21 03:06:40;;;;;;;;;;;14.30;99.90;;;;;;5133554;28;20366;-41
2023/08/21 03:09:05;;;;;;;;;;;14.30;99.90;;;;;;5134870;27;20314;-40
2023/08/21 03:11:31;;;;;;;;;;;14.20;99.90;;;;;;5154260;27;19907;-40
2023/08/21 03:13:56;;;;;;;;;;;14.30;99.90;;;;;;5155263;27;19907;-41
2023/08/21 03:16:22;;;;;;;;;;;14.30;99.90;;;;;;5158404;27;19915;-41
2023/08/21 03:18:58;;;;;;;;;;;14.20;99.90;;;;;;5158337;27;20018;-40
2023/08/21 03:21:24;;;;;;;;;;;14.30;99.90;;;;;;5158378;27;19907;-42
2023/08/21 03:23:50;;;;;;;;;;;14.20;99.90;;;;;;5158315;27;19907;-39
2023/08/21 03:26:16;;;;;;;;;;;14.20;99.90;;;;;;5158157;27;19955;-41
2023/08/21 03:28:41;;;;;;;;;;;14.20;99.90;;;;;;5157604;27;19919;-42
2023/08/21 03:31:07;;;;;;;;;;;14.20;99.90;;;;;;5137350;27;19912;-40
2023/08/21 03:33:32;;;;;;;;;;;14.20;99.90;;;;;;5137197;27;19915;-40
2023/08/21 03:35:58;;;;;;;;;;;14.20;99.90;;;;;;5137234;27;19918;-39
2023/08/21 03:38:24;;;;;;;;;;;14.20;99.90;;;;;;5137131;27;19998;-41
2023/08/21 03:40:49;;;;;;;;;;;14.10;99.90;;;;;;5137066;27;19914;-40
2023/08/21 03:43:15;;;;;;;;;;;14.20;99.90;;;;;;5128725;27;20255;-40
2023/08/21 03:45:40;;;;;;;;;;;14.10;99.90;;;;;;5136923;27;20014;-41
2023/08/21 03:48:05;;;;;;;;;;;14.10;99.90;;;;;;5137039;27;20014;-40
2023/08/21 03:50:31;;;;;;;;;;;14.10;99.90;;;;;;5137047;27;19912;-40
2023/08/21 03:52:56;;;;;;;;;;;14.00;99.90;;;;;;5137026;27;19934;-39
2023/08/21 03:55:24;;;;;;;;;;;14.00;99.90;;;;;;5135989;27;21379;-41
2023/08/21 03:57:49;;;;;;;;;;;14.00;99.90;;;;;;5137009;27;19933;-40
2023/08/21 04:00:15;;;;;;;;;;;14.00;99.90;;;;;;5143347;27;20006;-40
2023/08/21 04:02:40;;;;;;;;;;;13.90;99.90;;;;;;5157488;27;19907;-40
2023/08/21 04:05:06;;;;;;;;;;;13.90;99.90;;;;;;5157599;27;19911;-41
2023/08/21 04:07:31;;;;;;;;;;;13.90;99.90;;;;;;5157024;27;20285;-41
2023/08/21 04:09:57;;;;;;;;;;;13.90;99.90;;;;;;5157392;27;19942;-41
2023/08/21 04:12:22;;;;;;;;;;;13.80;99.90;;;;;;5157416;27;19911;-41
2023/08/21 04:14:48;;;;;;;;;;;13.90;99.90;;;;;;5157274;27;19938;-39
2023/08/21 04:17:13;;;;;;;;;;;13.80;99.90;;;;;;5157228;27;19911;-40
2023/08/21 04:19:40;;;;;;;;;;;13.80;99.90;;;;;;5157168;27;19915;-39
2023/08/21 04:22:06;;;;;;;;;;;13.80;99.90;;;;;;5138363;27;19919;-39
2023/08/21 04:24:32;;;;;;;;;;;13.80;99.90;;;;;;5122192;27;19911;-40
2023/08/21 04:26:58;;;;;;;;;;;13.80;99.90;;;;;;5126649;27;19912;-40
2023/08/21 04:29:23;;;;;;;;;;;13.80;99.90;;;;;;5120036;27;19911;-40
2023/08/21 04:31:49;;;;;;;;;;;13.80;99.90;;;;;;5136216;27;19911;-40
2023/08/21 04:34:14;;;;;;;;;;;13.80;99.90;;;;;;5136269;27;19907;-39
2023/08/21 04:36:40;;;;;;;;;;;13.80;99.90;;;;;;5136220;27;19914;-40
2023/08/21 04:39:05;;;;;;;;;;;13.80;99.90;;;;;;5135875;27;20466;-41
2023/08/21 04:41:31;;;;;;;;;;;13.80;99.90;;;;;;5136056;27;20156;-39
2023/08/21 04:43:56;;;;;;;;;;;13.80;99.90;;;;;;5135568;27;20362;-40
2023/08/21 04:46:22;;;;;;;;;;;13.80;99.90;;;;;;5136069;27;19998;-41
2023/08/21 04:48:47;;;;;;;;;;;13.80;99.90;;;;;;5136024;27;20366;-40
2023/08/21 04:51:13;;;;;;;;;;;13.80;99.90;;;;;;5135974;27;19907;-40
2023/08/21 04:53:38;;;;;;;;;;;13.90;99.90;;;;;;5135748;27;19907;-40
2023/08/21 04:56:04;;;;;;;;;;;13.90;99.90;;;;;;5135866;27;19915;-39
2023/08/21 04:58:29;;;;;;;;;;;13.90;99.90;;;;;;5135661;27;20398;-41
2023/08/21 05:00:55;;;;;;;;;;;13.90;99.90;;;;;;5152392;27;20080;-40
2023/08/21 05:03:20;;;;;;;;;;;13.90;99.90;;;;;;5156443;27;19946;-40
2023/08/21 05:05:53;;;;;;;;;;;13.90;99.90;;;;;;5156287;27;19949;-40
2023/08/21 05:08:19;;;;;;;;;;;13.90;99.90;;;;;;5155899;27;19907;-40
2023/08/21 05:10:44;;;;;;;;;;;14.00;99.90;;;;;;5156224;27;19946;-41
2023/08/21 05:13:10;;;;;;;;;;;13.90;99.90;;;;;;5156107;27;19908;-39
2023/08/21 05:15:35;;;;;;;;;;;14.00;99.90;;;;;;5156180;27;19915;-41
2023/08/21 05:18:00;;;;;;;;;;;14.00;99.90;;;;;;5156099;27;19911;-41
2023/08/21 05:20:26;;;;;;;;;;;14.00;99.90;;;;;;5155818;27;19919;-40
2023/08/21 05:22:51;;;;;;;;;;;14.00;99.90;;;;;;5139945;27;19983;-40
2023/08/21 05:25:17;;;;;;;;;;;14.00;99.90;;;;;;5134797;27;19912;-41
2023/08/21 05:27:42;;;;;;;;;;;14.00;99.90;;;;;;5136706;27;19988;-40
2023/08/21 05:30:10;;;;;;;;;;;14.00;99.90;;;;;;5131101;27;19914;-40
2023/08/21 05:32:35;;;;;;;;;;;14.00;99.90;;;;;;5131088;27;19911;-40
2023/08/21 05:35:01;;;;;;;;;;;14.00;99.90;;;;;;5119562;27;19908;-40
2023/08/21 05:37:26;;;;;;;;;;;14.00;99.90;;;;;;5122760;27;19918;-39
2023/08/21 05:39:52;;;;;;;;;;;14.10;99.90;;;;;;5114444;27;19960;-42
2023/08/21 05:42:17;;;;;;;;;;;14.10;99.90;;;;;;5122799;27;19918;-40
2023/08/21 05:44:43;;;;;;;;;;;14.10;99.90;;;;;;5131366;27;19926;-40
2023/08/21 05:47:08;;;;;;;;;;;14.20;99.90;;;;;;5133939;27;19946;-42
2023/08/21 05:49:34;;;;;;;;;;;14.20;99.90;;;;;;5131917;27;19912;-40
2023/08/21 05:51:59;;;;;;;;;;;14.30;99.90;;;;;;5133795;27;19908;-41
2023/08/21 05:54:25;;;;;;;;;;;14.30;99.90;;;;;;5133831;27;20259;-41
2023/08/21 05:56:51;;;;;;;;;;;14.40;99.90;;;;;;5133682;27;20431;-40
2023/08/21 05:59:27;;;;;;;;;;;14.50;99.90;;;;;;5133528;27;19919;-40
2023/08/21 06:01:52;;;;;;;;;;;14.50;99.90;;;;;;5133931;27;19907;-42
2023/08/21 06:04:17;;;;;;;;;;;14.60;99.90;;;;;;5133768;27;20422;-42
2023/08/21 06:06:43;;;;;;;;;;;14.60;99.90;;;;;;5133548;27;20009;-41
2023/08/21 06:09:08;;;;;;;;;;;14.70;99.90;;;;;;5133729;27;19915;-40
2023/08/21 06:11:34;;;;;;;;;;;14.80;99.90;;;;;;5133844;27;19907;-41
2023/08/21 06:14:00;;;;;;;;;;;14.90;99.90;;;;;;5133601;27;19907;-41
2023/08/21 06:16:25;;;;;;;;;;;14.90;99.90;;;;;;5131486;27;20358;-39
2023/08/21 06:18:51;;;;;;;;;;;15.00;99.90;;;;;;5130539;27;19919;-42
2023/08/21 06:21:16;;;;;;;;;;;15.10;99.90;;;;;;5133130;27;20358;-41
2023/08/21 06:23:42;;;;;;;;;;;15.20;99.90;;;;;;5122607;27;20036;-39
2023/08/21 06:26:07;;;;;;;;;;;15.30;99.90;;;;;;5131840;27;19914;-40
2023/08/21 06:28:33;;;;;;;;;;;15.40;99.90;;;;;;5124181;27;19918;-40
2023/08/21 06:30:58;;;;;;;;;;;15.40;99.90;;;;;;5129792;27;20002;-42
2023/08/21 06:33:24;;;;;;;;;;;15.50;99.90;;;;;;5133211;27;19911;-40
2023/08/21 06:35:49;;;;;;;;;;;15.60;99.90;;;;;;5133110;27;19914;-41
2023/08/21 06:38:15;;;;;;;;;;;15.70;99.90;;;;;;5133296;27;19907;-40
2023/08/21 06:40:40;;;;;;;;;;;15.90;99.90;;;;;;5132985;27;19923;-41
2023/08/21 06:43:06;;;;;;;;;;;15.90;99.90;;;;;;5135607;27;19966;-42
2023/08/21 06:45:32;;;;;;;;;;;16.00;99.90;;;;;;5132867;27;20316;-41
2023/08/21 06:47:57;;;;;;;;;;;16.20;99.90;;;;;;5133253;27;19995;-41
2023/08/21 06:50:23;;;;;;;;;;;16.30;99.90;;;;;;5132657;27;20400;-41
2023/08/21 06:52:48;;;;;;;;;;;16.40;99.90;;;;;;5132957;27;19919;-42
2023/08/21 06:55:14;;;;;;;;;;;16.50;99.90;;;;;;5133169;28;19907;-40
2023/08/21 06:57:39;;;;;;;;;;;16.70;99.90;;;;;;5132029;28;20005;-40
2023/08/21 07:00:05;;;;;;;;;;;16.80;99.90;;;;;;5132482;28;20250;-40
2023/08/21 07:02:31;;;;;;;;;;;16.90;99.90;;;;;;5131668;28;20273;-41
2023/08/21 07:04:56;;;;;;;;;;;17.00;99.90;;;;;;5125269;28;19912;-41
2023/08/21 07:07:23;;;;;;;;;;;17.10;99.90;;;;;;5121578;28;20422;-40
2023/08/21 07:09:49;;;;;;;;;;;17.20;99.90;;;;;;5113149;28;19908;-40
2023/08/21 07:12:15;;;;;;;;;;;17.30;99.90;;;;;;5113733;28;19915;-42
2023/08/21 07:14:40;;;;;;;;;;;17.40;99.90;;;;;;5121486;28;19912;-42
2023/08/21 07:17:06;;;;;;;;;;;17.50;99.90;;;;;;5121761;28;20003;-41
2023/08/21 07:19:32;;;;;;;;;;;17.60;99.90;;;;;;5119810;28;19931;-40
2023/08/21 07:21:57;;;;;;;;;;;17.70;99.90;;;;;;5117615;27;19918;-40
2023/08/21 07:24:22;;;;;;;;;;;17.80;99.90;;;;;;5115951;28;19918;-40
2023/08/21 07:26:48;;;;;;;;;;;17.90;99.90;;;;;;5133875;28;20309;-42
2023/08/21 07:29:13;;;;;;;;;;;18.00;99.90;;;;;;5138835;27;20014;-43
2023/08/21 07:31:39;;;;;;;;;;;18.10;99.90;;;;;;5135045;27;19918;-41
2023/08/21 07:34:04;;;;;;;;;;;18.20;99.90;;;;;;5133498;28;19907;-41
2023/08/21 07:36:31;;;;;;;;;;;18.30;99.90;;;;;;5134008;28;20283;-41
2023/08/21 07:38:56;;;;;;;;;;;18.40;99.90;;;;;;5125059;28;19916;-42
2023/08/21 07:41:22;;;;;;;;;;;18.50;99.90;;;;;;5113414;28;19931;-39
2023/08/21 07:43:47;;;;;;;;;;;18.60;99.90;;;;;;5112252;28;19907;-40
2023/08/21 07:46:15;;;;;;;;;;;18.60;99.90;;;;;;5129035;28;20281;-41
2023/08/21 07:48:42;;;;;;;;;;;18.80;99.90;;;;;;5113387;28;19931;-40
2023/08/21 07:51:08;;;;;;;;;;;18.80;99.90;;;;;;5113347;28;19996;-44
2023/08/21 07:53:34;;;;;;;;;;;18.90;99.90;;;;;;5113419;28;19965;-41
2023/08/21 07:56:00;;;;;;;;;;;19.00;99.90;;;;;;5113499;28;19984;-43
2023/08/21 07:58:26;;;;;;;;;;;19.10;99.90;;;;;;5113230;28;20304;-44
2023/08/21 08:00:51;;;;;;;;;;;19.10;99.90;;;;;;5134610;27;19938;-41
2023/08/21 08:03:17;;;;;;;;;;;19.20;99.90;;;;;;5136922;27;20003;-42
2023/08/21 08:05:42;;;;;;;;;;;19.30;99.90;;;;;;5137329;27;19954;-42
2023/08/21 08:08:08;;;;;;;;;;;19.40;99.90;;;;;;5125053;27;19996;-40
2023/08/21 08:10:37;;;;;;;;;;;19.40;99.90;;;;;;5133820;27;20012;-41
2023/08/21 08:13:02;;;;;;;;;;;19.50;99.90;;;;;;5122145;27;20007;-42
2023/08/21 08:15:28;;;;;;;;;;;19.60;99.90;;;;;;5129025;27;19946;-41
2023/08/21 08:17:54;;;;;;;;;;;19.70;99.90;;;;;;5121628;27;19907;-42
2023/08/21 08:20:20;;;;;;;;;;;19.90;99.90;;;;;;5115994;28;20263;-40
2023/08/21 08:22:45;;;;;;;;;;;19.90;99.90;;;;;;5116288;28;19937;-42
2023/08/21 08:25:11;;;;;;;;;;;20.00;99.90;;;;;;5116032;28;19907;-41
2023/08/21 08:27:36;;;;;;;;;;;20.10;99.90;;;;;;5115835;28;19912;-40
2023/08/21 08:30:03;;;;;;;;;;;20.20;99.90;;;;;;5141087;27;19920;-43
2023/08/21 08:32:29;;;;;;;;;;;20.30;99.90;;;;;;5156287;27;20374;-41
2023/08/21 08:34:54;;;;;;;;;;;20.40;99.90;;;;;;5156778;27;19943;-41
2023/08/21 08:37:20;;;;;;;;;;;20.50;99.90;;;;;;5151136;27;19907;-41
2023/08/21 08:39:46;;;;;;;;;;;20.60;99.90;;;;;;5124172;27;19919;-42
2023/08/21 08:42:11;;;;;;;;;;;20.70;99.90;;;;;;5126656;27;19912;-40
2023/08/21 08:44:38;;;;;;;;;;;20.80;99.90;;;;;;5114875;28;19931;-41
2023/08/21 08:47:04;;;;;;;;;;;20.90;99.90;;;;;;5114142;27;19954;-43
2023/08/21 08:49:30;;;;;;;;;;;20.90;99.90;;;;;;5125045;27;20000;-42
2023/08/21 08:51:57;;;;;;;;;;;21.00;99.90;;;;;;5135797;27;20045;-41
2023/08/21 08:54:25;;;;;;;;;;;21.00;99.90;;;;;;5132496;27;20020;-43
2023/08/21 08:56:50;;;;;;;;;;;21.10;99.90;;;;;;5129398;27;19912;-43
2023/08/21 08:59:16;;;;;;;;;;;21.20;99.90;;;;;;5128504;27;20359;-45
2023/08/21 09:01:41;;;;;;;;;;;21.20;99.90;;;;;;5117541;27;19919;-41
2023/08/21 09:04:07;;;;;;;;;;;21.30;99.90;;;;;;5115618;27;20002;-40
2023/08/21 09:06:33;;;;;;;;;;;21.40;99.90;;;;;;5126725;27;19995;-40
2023/08/21 09:08:59;;;;;;;;;;;21.60;99.90;;;;;;5115696;28;19908;-41
2023/08/21 09:11:24;;;;;;;;;;;21.70;99.90;;;;;;5114857;28;20266;-42
2023/08/21 09:13:51;;;;;;;;;;;21.70;99.90;;;;;;5115266;27;19934;-44
2023/08/21 09:16:20;;;;;;;;;;;21.80;99.90;;;;;;5114619;28;20366;-41
2023/08/21 09:18:46;;;;;;;;;;;21.80;99.90;;;;;;5114451;28;19942;-41
2023/08/21 09:21:15;;;;;;;;;;;21.90;99.90;;;;;;5117978;27;19912;-45
2023/08/21 09:23:40;;;;;;;;;;;22.00;99.90;;;;;;5117575;27;20130;-44
2023/08/21 09:26:07;;;;;;;;;;;22.00;99.90;;;;;;5125908;27;19939;-41
2023/08/21 09:28:32;;;;;;;;;;;22.10;99.90;;;;;;5125973;27;19973;-43
2023/08/21 09:30:58;;;;;;;;;;;22.20;99.90;;;;;;5119497;27;19940;-44
2023/08/21 09:33:24;;;;;;;;;;;22.30;99.90;;;;;;5129457;27;19934;-44
2023/08/21 09:35:52;;;;;;;;;;;22.40;99.90;;;;;;5117430;27;20457;-42
2023/08/21 09:38:21;;;;;;;;;;;22.40;99.90;;;;;;5128457;27;19919;-44
2023/08/21 09:40:53;;;;;;;;;;;22.50;99.90;;;;;;5122129;27;19923;-43
2023/08/21 09:43:20;;;;;;;;;;;22.60;99.90;;;;;;5124359;27;19911;-43
2023/08/21 09:45:46;;;;;;;;;;;22.60;99.90;;;;;;5129627;27;19927;-43
2023/08/21 09:48:11;;;;;;;;;;;22.70;99.90;;;;;;5122494;27;20006;-42
2023/08/21 09:50:38;;;;;;;;;;;22.70;99.90;;;;;;5133614;27;20002;-43
2023/08/21 09:53:05;;;;;;;;;;;22.80;99.90;;;;;;5130920;27;20484;-42
2023/08/21 09:55:32;;;;;;;;;;;22.90;99.90;;;;;;5130678;27;19914;-43
2023/08/21 09:58:01;;;;;;;;;;;23.00;99.90;;;;;;5114329;28;20389;-42
2023/08/21 10:00:31;;;;;;;;;;;23.10;99.90;;;;;;5113954;28;20435;-43
2023/08/21 10:03:01;;;;;;;;;;;23.10;99.90;;;;;;5114524;28;19915;-41
2023/08/21 10:05:27;;;;;;;;;;;23.20;99.90;;;;;;5114666;28;19919;-42
2023/08/21 10:07:55;;;;;;;;;;;23.20;99.90;;;;;;5114359;28;19908;-42
2023/08/21 10:10:20;;;;;;;;;;;23.30;99.90;;;;;;5114451;28;19908;-42
2023/08/21 10:12:46;;;;;;;;;;;23.30;99.90;;;;;;5113849;28;19915;-42
2023/08/21 10:15:12;;;;;;;;;;;23.40;99.90;;;;;;5113725;28;19915;-42
2023/08/21 10:17:38;;;;;;;;;;;23.40;99.90;;;;;;5126127;27;19908;-45
2023/08/21 10:20:07;;;;;;;;;;;23.50;99.90;;;;;;5143717;27;19919;-41
2023/08/21 10:22:38;;;;;;;;;;;23.50;99.90;;;;;;5155367;27;20372;-43
2023/08/21 10:25:13;;;;;;;;;;;23.60;99.90;;;;;;5154281;27;19914;-41
2023/08/21 10:27:40;;;;;;;;;;;23.70;99.90;;;;;;5132021;27;20392;-43
2023/08/21 10:30:13;;;;;;;;;;;23.80;99.90;;;;;;5125178;27;19973;-41
2023/08/21 10:32:44;;;;;;;;;;;23.90;99.90;;;;;;5112794;28;20024;-43
2023/08/21 10:35:13;;;;;;;;;;;23.90;99.90;;;;;;5120818;27;19975;-41
2023/08/21 10:37:59;;;;;;;;;;;24.00;99.90;;;;;;5132757;27;19914;-42
2023/08/21 10:40:24;;;;;;;;;;;24.10;99.90;;;;;;5111000;27;20370;-42
2023/08/21 10:42:50;;;;;;;;;;;24.10;99.90;;;;;;5122411;27;19917;-41
2023/08/21 10:45:15;;;;;;;;;;;24.20;99.90;;;;;;5133934;27;19919;-42
2023/08/21 10:47:41;;;;;;;;;;;24.20;99.90;;;;;;5131012;27;19964;-43
2023/08/21 10:50:07;;;;;;;;;;;24.20;99.90;;;;;;5124886;27;20561;-42
2023/08/21 10:52:37;;;;;;;;;;;24.20;99.90;;;;;;5124542;27;19958;-43
2023/08/21 10:55:06;;;;;;;;;;;24.20;99.90;;;;;;5130914;27;20023;-41
2023/08/21 10:57:33;;;;;;;;;;;24.20;99.90;;;;;;5135959;27;19911;-41
2023/08/21 10:59:59;;;;;;;;;;;24.20;99.90;;;;;;5142022;27;20013;-44
2023/08/21 11:02:26;;;;;;;;;;;24.40;99.90;;;;;;5132919;28;19919;-41
2023/08/21 11:04:52;;;;;;;;;;;24.40;99.90;;;;;;5133454;28;20434;-46
2023/08/21 11:07:18;;;;;;;;;;;24.60;99.90;;;;;;5141172;27;19907;-46
2023/08/21 11:09:44;;;;;;;;;;;24.60;99.90;;;;;;5128316;27;20292;-41
2023/08/21 11:12:12;;;;;;;;;;;24.70;99.90;;;;;;5145650;27;20260;-41
2023/08/21 11:14:38;;;;;;;;;;;24.70;99.90;;;;;;5133554;27;19919;-42
2023/08/21 11:17:04;;;;;;;;;;;24.80;99.90;;;;;;5133315;27;19926;-41
2023/08/21 11:19:30;;;;;;;;;;;24.80;99.90;;;;;;5145951;27;20305;-42
2023/08/21 11:21:56;;;;;;;;;;;24.90;99.90;;;;;;5138562;27;19911;-42
2023/08/21 11:24:21;;;;;;;;;;;24.90;99.90;;;;;;5145509;27;20006;-42
2023/08/21 11:26:47;;;;;;;;;;;25.00;99.90;;;;;;5137356;27;19911;-41
2023/08/21 11:29:13;;;;;;;;;;;25.10;99.90;;;;;;5139697;27;19918;-42
2023/08/21 11:31:38;;;;;;;;;;;25.20;99.90;;;;;;5131898;28;19911;-44
2023/08/21 11:34:04;;;;;;;;;;;25.20;99.90;;;;;;5117120;28;19927;-43
2023/08/21 11:36:29;;;;;;;;;;;25.20;99.90;;;;;;5116727;28;19972;-41
2023/08/21 11:39:03;;;;;;;;;;;25.30;99.90;;;;;;5130511;27;20354;-42
2023/08/21 11:41:28;;;;;;;;;;;25.30;99.90;;;;;;5127945;27;19960;-43
2023/08/21 11:44:01;;;;;;;;;;;25.40;99.90;;;;;;5120936;27;19924;-44
2023/08/21 11:46:26;;;;;;;;;;;25.40;99.90;;;;;;5114207;28;19908;-48
2023/08/21 11:48:52;;;;;;;;;;;25.40;99.90;;;;;;5121492;27;19912;-42
2023/08/21 11:51:17;;;;;;;;;;;25.50;99.90;;;;;;5142371;27;20394;-41
2023/08/21 11:53:43;;;;;;;;;;;25.60;99.90;;;;;;5157232;27;20013;-44
2023/08/21 11:56:09;;;;;;;;;;;25.70;99.20;;;;;;5157752;27;19907;-43
2023/08/21 11:58:39;;;;;;;;;;;25.70;99.30;;;;;;5156215;27;19914;-42
2023/08/21 12:01:04;;;;;;;;;;;25.60;99.90;;;;;;5136940;27;19919;-40
2023/08/21 12:03:31;;;;;;;;;;;25.70;99.90;;;;;;5136790;27;19953;-41
2023/08/21 12:05:56;;;;;;;;;;;25.60;99.90;;;;;;5136913;27;19913;-41
2023/08/21 12:08:22;;;;;;;;;;;25.60;99.90;;;;;;5136708;27;20270;-46
2023/08/21 12:10:52;;;;;;;;;;;25.70;99.90;;;;;;5156423;27;19922;-42
2023/08/21 12:13:17;;;;;;;;;;;25.70;98.40;;;;;;5157346;27;20362;-43
2023/08/21 12:15:43;;;;;;;;;;;25.80;97.30;;;;;;5157368;27;19907;-42
2023/08/21 12:18:08;;;;;;;;;;;25.80;98.00;;;;;;5157233;27;19993;-42
2023/08/21 12:20:34;;;;;;;;;;;25.80;97.90;;;;;;5139114;27;19920;-41
2023/08/21 12:22:59;;;;;;;;;;;26.00;99.30;;;;;;5136507;27;20052;-42
2023/08/21 12:25:25;;;;;;;;;;;26.10;99.80;;;;;;5136367;27;20362;-46
2023/08/21 12:27:50;;;;;;;;;;;26.10;98.70;;;;;;5136607;27;19957;-43
2023/08/21 12:30:16;;;;;;;;;;;26.20;96.90;;;;;;5151080;27;20276;-45
2023/08/21 12:32:41;;;;;;;;;;;26.20;97.60;;;;;;5156777;27;20402;-43
2023/08/21 12:35:08;;;;;;;;;;;26.30;96.40;;;;;;5157189;27;19911;-43
2023/08/21 12:37:33;;;;;;;;;;;26.40;96.90;;;;;;5156867;27;19914;-43
2023/08/21 12:39:59;;;;;;;;;;;26.40;97.30;;;;;;5144137;27;20289;-41
2023/08/21 12:42:24;;;;;;;;;;;26.50;97.00;;;;;;5135904;27;19914;-45
2023/08/21 12:44:49;;;;;;;;;;;26.60;96.90;;;;;;5135760;27;19919;-41
2023/08/21 12:47:15;;;;;;;;;;;26.70;95.60;;;;;;5135496;27;19907;-44
2023/08/21 12:49:41;;;;;;;;;;;26.70;96.80;;;;;;5144665;27;20358;-41
2023/08/21 12:52:06;;;;;;;;;;;26.60;94.00;;;;;;5156802;27;19914;-42
2023/08/21 12:54:32;;;;;;;;;;;26.60;96.50;;;;;;5156621;27;19911;-41
2023/08/21 12:56:57;;;;;;;;;;;26.70;96.20;;;;;;5138052;27;19907;-41
2023/08/21 12:59:23;;;;;;;;;;;26.70;96.00;;;;;;5149265;27;19926;-43
2023/08/21 13:01:48;;;;;;;;;;;26.90;98.40;;;;;;5135563;27;19911;-43
2023/08/21 13:04:14;;;;;;;;;;;27.20;98.20;;;;;;5115233;28;19908;-46
2023/08/21 13:06:39;;;;;;;;;;;27.50;96.40;;;;;;5115098;28;20348;-42
2023/08/21 13:09:06;;;;;;;;;;;27.70;95.50;;;;;;5119561;27;19919;-45
2023/08/21 13:11:32;;;;;;;;;;;27.60;93.80;;;;;;5135473;27;19998;-42
2023/08/21 13:13:57;;;;;;;;;;;27.70;93.60;;;;;;5135571;27;19955;-42
2023/08/21 13:16:22;;;;;;;;;;;27.60;90.80;;;;;;5135516;27;20254;-42
2023/08/21 13:18:48;;;;;;;;;;;27.40;92.60;;;;;;5135294;27;19911;-41
2023/08/21 13:21:13;;;;;;;;;;;27.40;94.10;;;;;;5131901;27;19990;-41
2023/08/21 13:23:39;;;;;;;;;;;27.60;93.70;;;;;;5135168;27;19907;-43
2023/08/21 13:26:04;;;;;;;;;;;27.50;95.20;;;;;;5135088;27;19983;-43
2023/08/21 13:28:31;;;;;;;;;;;27.30;96.40;;;;;;5135198;27;20277;-42
2023/08/21 13:30:56;;;;;;;;;;;27.40;95.80;;;;;;5154609;27;19918;-44
2023/08/21 13:33:22;;;;;;;;;;;27.60;94.00;;;;;;5155593;27;19998;-45
2023/08/21 13:35:47;;;;;;;;;;;28.10;93.30;;;;;;5155351;27;20023;-41
2023/08/21 13:38:13;;;;;;;;;;;28.60;92.60;;;;;;5147570;27;19908;-46
2023/08/21 13:40:40;;;;;;;;;;;28.80;87.60;;;;;;5134907;27;20330;-46
2023/08/21 13:43:07;;;;;;;;;;;28.90;88.20;;;;;;5134574;27;20010;-43
2023/08/21 13:45:32;;;;;;;;;;;29.30;90.20;;;;;;5134619;27;19954;-45
2023/08/21 13:47:58;;;;;;;;;;;29.10;83.50;;;;;;5134927;27;19961;-42
2023/08/21 13:50:23;;;;;;;;;;;28.60;90.20;;;;;;5138651;27;19911;-43
2023/08/21 13:52:50;;;;;;;;;;;28.30;88.00;;;;;;5155499;27;20273;-42
2023/08/21 13:55:15;;;;;;;;;;;27.90;91.20;;;;;;5155419;27;19907;-43
2023/08/21 13:57:41;;;;;;;;;;;27.60;91.10;;;;;;5155172;27;19907;-43
2023/08/21 14:00:07;;;;;;;;;;;27.80;92.10;;;;;;5154136;27;19923;-42
2023/08/21 14:02:35;;;;;;;;;;;28.40;92.60;;;;;;5155224;27;19907;-42
2023/08/21 14:05:04;;;;;;;;;;;28.90;93.40;;;;;;5155292;27;19911;-43
2023/08/21 14:07:30;;;;;;;;;;;29.20;92.00;;;;;;5154806;27;19915;-42
2023/08/21 14:09:56;;;;;;;;;;;29.50;84.90;;;;;;5155132;27;19963;-43